Time;durP1;ratioP1;P1;durP2;ratioP2;P2;SDS_P1;SDS_P2;PMS_P1;PMS_P2;Temp;Humidity;BMP_temperature;BMP_pressure;BME280_temperature;BME280_humidity;BME280_pressure;Samples;Min_cycle;Max_cycle;Signal;HPM_P1;HPM_P2
2023/09/08 00:00:50;;;;;;;;;;;25.80;69.60;;;;;;5094085;28;19916;-35
2023/09/08 00:03:16;;;;;;;;;;;25.80;69.60;;;;;;5098791;28;20005;-35
2023/09/08 00:05:42;;;;;;;;;;;25.80;69.60;;;;;;5096800;28;19916;-35
2023/09/08 00:08:08;;;;;;;;;;;25.80;69.50;;;;;;5100562;28;19912;-35
2023/09/08 00:10:33;;;;;;;;;;;25.90;69.60;;;;;;5096185;28;19951;-35
2023/09/08 00:12:59;;;;;;;;;;;25.90;69.60;;;;;;5103858;28;19942;-35
2023/09/08 00:15:25;;;;;;;;;;;25.90;69.50;;;;;;5103867;28;19923;-34
2023/09/08 00:17:51;;;;;;;;;;;25.90;69.50;;;;;;5094964;28;20390;-35
2023/09/08 00:20:17;;;;;;;;;;;25.90;69.50;;;;;;5100911;28;19924;-35
2023/09/08 00:22:43;;;;;;;;;;;25.90;69.50;;;;;;5096099;28;19966;-35
2023/09/08 00:25:09;;;;;;;;;;;25.90;69.50;;;;;;5099091;28;19920;-35
2023/09/08 00:27:35;;;;;;;;;;;25.90;69.70;;;;;;5100547;28;20292;-35
2023/09/08 00:30:01;;;;;;;;;;;25.90;69.70;;;;;;5093075;28;19923;-35
2023/09/08 00:32:27;;;;;;;;;;;25.90;69.90;;;;;;5090217;28;19991;-35
2023/09/08 00:34:53;;;;;;;;;;;25.90;70.00;;;;;;5094326;28;19932;-35
2023/09/08 00:37:19;;;;;;;;;;;25.90;70.20;;;;;;5089358;28;19924;-35
2023/09/08 00:39:45;;;;;;;;;;;25.90;70.20;;;;;;5095543;28;19946;-35
2023/09/08 00:42:11;;;;;;;;;;;25.90;70.30;;;;;;5100961;28;19912;-35
2023/09/08 00:44:37;;;;;;;;;;;25.90;70.20;;;;;;5102718;28;20001;-35
2023/09/08 00:47:03;;;;;;;;;;;25.90;70.20;;;;;;5097405;28;20411;-35
2023/09/08 00:49:29;;;;;;;;;;;25.90;70.20;;;;;;5103172;28;20129;-35
2023/09/08 00:51:54;;;;;;;;;;;25.90;70.10;;;;;;5103300;28;20432;-35
2023/09/08 00:54:20;;;;;;;;;;;25.90;70.10;;;;;;5117822;28;19916;-35
2023/09/08 00:56:47;;;;;;;;;;;25.90;70.20;;;;;;5101759;28;19920;-35
2023/09/08 00:59:12;;;;;;;;;;;26.00;70.30;;;;;;5110059;28;20389;-35
2023/09/08 01:01:38;;;;;;;;;;;26.00;70.20;;;;;;5100951;28;19916;-35
2023/09/08 01:04:04;;;;;;;;;;;26.00;70.30;;;;;;5091579;28;19912;-35
2023/09/08 01:06:30;;;;;;;;;;;26.00;70.30;;;;;;5094044;28;19916;-35
2023/09/08 01:08:56;;;;;;;;;;;26.00;70.30;;;;;;5095686;28;19977;-35
2023/09/08 01:11:22;;;;;;;;;;;25.90;70.30;;;;;;5089601;28;19916;-35
2023/09/08 01:13:48;;;;;;;;;;;26.00;70.40;;;;;;5093492;28;19927;-35
2023/09/08 01:16:14;;;;;;;;;;;26.00;70.50;;;;;;5098362;28;20023;-35
2023/09/08 01:18:40;;;;;;;;;;;26.00;70.50;;;;;;5102797;28;20284;-35
2023/09/08 01:21:07;;;;;;;;;;;26.00;70.60;;;;;;5103123;28;19916;-35
2023/09/08 01:23:37;;;;;;;;;;;26.00;70.50;;;;;;5101709;28;19966;-35
2023/09/08 01:26:04;;;;;;;;;;;25.90;70.50;;;;;;5108195;28;19924;-35
2023/09/08 01:28:30;;;;;;;;;;;26.00;70.70;;;;;;5115167;28;19916;-35
2023/09/08 01:30:56;;;;;;;;;;;25.90;70.50;;;;;;5108349;28;19927;-35
2023/09/08 01:33:22;;;;;;;;;;;26.00;70.60;;;;;;5099635;28;19923;-35
2023/09/08 01:35:48;;;;;;;;;;;25.90;70.30;;;;;;5103057;28;19981;-35
2023/09/08 01:38:14;;;;;;;;;;;25.90;70.30;;;;;;5086068;28;19916;-35
2023/09/08 01:40:40;;;;;;;;;;;25.90;70.30;;;;;;5101195;28;20322;-35
2023/09/08 01:43:06;;;;;;;;;;;25.90;70.20;;;;;;5102370;28;19916;-35
2023/09/08 01:45:32;;;;;;;;;;;25.90;70.10;;;;;;5110317;28;20006;-35
2023/09/08 01:47:58;;;;;;;;;;;25.90;69.90;;;;;;5095848;28;19926;-35
2023/09/08 01:50:24;;;;;;;;;;;25.90;69.60;;;;;;5102613;28;19916;-35
2023/09/08 01:52:50;;;;;;;;;;;25.90;69.60;;;;;;5091489;28;19916;-35
2023/09/08 01:55:16;;;;;;;;;;;25.90;69.90;;;;;;5098209;28;19920;-36
2023/09/08 01:57:43;;;;;;;;;;;25.90;70.10;;;;;;5100858;28;19967;-35
2023/09/08 02:00:09;;;;;;;;;;;25.90;70.30;;;;;;5109372;28;19940;-35
2023/09/08 02:02:35;;;;;;;;;;;25.90;70.20;;;;;;5098807;28;19983;-35
2023/09/08 02:05:01;;;;;;;;;;;25.90;70.30;;;;;;5095983;28;19940;-35
2023/09/08 02:07:27;;;;;;;;;;;25.90;70.30;;;;;;5101232;28;19915;-35
2023/09/08 02:09:53;;;;;;;;;;;25.90;70.30;;;;;;5101545;28;19916;-35
2023/09/08 02:12:19;;;;;;;;;;;25.90;70.30;;;;;;5094500;28;19918;-35
2023/09/08 02:14:45;;;;;;;;;;;25.90;70.10;;;;;;5091230;28;19935;-35
2023/09/08 02:17:10;;;;;;;;;;;25.90;69.90;;;;;;5101510;28;20016;-35
2023/09/08 02:19:36;;;;;;;;;;;25.90;69.70;;;;;;5093747;28;19913;-35
2023/09/08 02:22:02;;;;;;;;;;;25.80;69.60;;;;;;5095243;28;19916;-34
2023/09/08 02:24:29;;;;;;;;;;;25.90;69.60;;;;;;5102476;28;19919;-34
2023/09/08 02:26:55;;;;;;;;;;;25.90;69.50;;;;;;5095554;28;19912;-34
2023/09/08 02:29:21;;;;;;;;;;;25.90;69.50;;;;;;5098301;28;20320;-34
2023/09/08 02:31:46;;;;;;;;;;;25.80;69.30;;;;;;5094454;28;19923;-34
2023/09/08 02:34:12;;;;;;;;;;;25.80;69.30;;;;;;5094363;28;19927;-34
2023/09/08 02:36:38;;;;;;;;;;;25.80;70.10;;;;;;5089471;28;19928;-34
2023/09/08 02:39:07;;;;;;;;;;;25.90;69.60;;;;;;5090881;28;20252;-35
2023/09/08 02:41:33;;;;;;;;;;;25.80;69.90;;;;;;5084264;28;19923;-34
2023/09/08 02:43:59;;;;;;;;;;;25.80;70.10;;;;;;5106705;28;19917;-35
2023/09/08 02:46:25;;;;;;;;;;;25.80;70.30;;;;;;5085556;28;19919;-34
2023/09/08 02:48:51;;;;;;;;;;;25.80;70.40;;;;;;5091464;28;19916;-34
2023/09/08 02:51:17;;;;;;;;;;;25.80;70.50;;;;;;5089468;28;19916;-34
2023/09/08 02:53:43;;;;;;;;;;;25.80;70.40;;;;;;5089236;28;19966;-35
2023/09/08 02:56:09;;;;;;;;;;;25.80;70.10;;;;;;5083467;28;19932;-35
2023/09/08 02:58:35;;;;;;;;;;;25.80;69.80;;;;;;5084551;28;19916;-35
2023/09/08 03:01:14;;;;;;;;;;;25.80;69.70;;;;;;5087628;28;19919;-34
2023/09/08 03:03:40;;;;;;;;;;;25.80;69.80;;;;;;5092280;28;19923;-34
2023/09/08 03:06:06;;;;;;;;;;;25.80;70.20;;;;;;5083461;28;19916;-35
2023/09/08 03:08:32;;;;;;;;;;;25.80;70.40;;;;;;5096166;28;19923;-35
2023/09/08 03:10:58;;;;;;;;;;;25.80;70.50;;;;;;5083607;28;19983;-35
2023/09/08 03:13:25;;;;;;;;;;;25.80;70.50;;;;;;5099162;28;19914;-34
2023/09/08 03:15:52;;;;;;;;;;;25.70;70.50;;;;;;5091038;28;19920;-34
2023/09/08 03:18:18;;;;;;;;;;;25.80;70.60;;;;;;5083276;28;19916;-34
2023/09/08 03:20:47;;;;;;;;;;;25.70;70.50;;;;;;5102156;28;19922;-36
2023/09/08 03:23:13;;;;;;;;;;;25.70;70.70;;;;;;5099920;28;20396;-36
2023/09/08 03:25:39;;;;;;;;;;;25.70;70.10;;;;;;5089331;28;19916;-34
2023/09/08 03:28:05;;;;;;;;;;;25.70;69.90;;;;;;5101012;28;20399;-34
2023/09/08 03:30:31;;;;;;;;;;;25.70;69.90;;;;;;5094314;28;19912;-34
2023/09/08 03:32:57;;;;;;;;;;;25.70;69.80;;;;;;5095067;28;20393;-34
2023/09/08 03:35:23;;;;;;;;;;;25.70;69.90;;;;;;5101582;28;19970;-34
2023/09/08 03:37:49;;;;;;;;;;;25.70;69.90;;;;;;5098090;28;19930;-34
2023/09/08 03:40:15;;;;;;;;;;;25.60;69.80;;;;;;5100452;28;19915;-34
2023/09/08 03:42:42;;;;;;;;;;;25.60;69.80;;;;;;5092939;28;19934;-36
2023/09/08 03:45:08;;;;;;;;;;;25.70;69.90;;;;;;5099819;28;19980;-34
2023/09/08 03:47:33;;;;;;;;;;;25.70;69.90;;;;;;5104444;28;20002;-34
2023/09/08 03:49:59;;;;;;;;;;;25.60;69.80;;;;;;5095102;28;20402;-36
2023/09/08 03:52:26;;;;;;;;;;;25.60;69.80;;;;;;5095801;28;20276;-35
2023/09/08 03:54:52;;;;;;;;;;;25.60;69.90;;;;;;5093322;28;19924;-34
2023/09/08 03:57:17;;;;;;;;;;;25.60;69.90;;;;;;5100270;28;19924;-36
2023/09/08 03:59:43;;;;;;;;;;;25.60;69.90;;;;;;5099805;28;19912;-34
2023/09/08 04:02:09;;;;;;;;;;;25.60;69.90;;;;;;5104638;28;19927;-34
2023/09/08 04:04:35;;;;;;;;;;;25.60;69.90;;;;;;5096621;28;19912;-34
2023/09/08 04:07:01;;;;;;;;;;;25.60;70.00;;;;;;5097442;28;19934;-34
2023/09/08 04:09:28;;;;;;;;;;;25.60;70.00;;;;;;5105357;28;19951;-34
2023/09/08 04:11:54;;;;;;;;;;;25.60;70.00;;;;;;5085921;28;19938;-34
2023/09/08 04:14:23;;;;;;;;;;;25.60;70.00;;;;;;5097367;28;19951;-34
2023/09/08 04:16:49;;;;;;;;;;;25.60;70.00;;;;;;5103544;28;20372;-34
2023/09/08 04:19:15;;;;;;;;;;;25.50;70.70;;;;;;5103385;28;19916;-35
2023/09/08 04:21:41;;;;;;;;;;;25.50;70.00;;;;;;5094385;28;19912;-35
2023/09/08 04:24:07;;;;;;;;;;;25.60;70.10;;;;;;5078017;28;19962;-35
2023/09/08 04:26:33;;;;;;;;;;;25.50;70.80;;;;;;5096615;28;19916;-35
2023/09/08 04:28:58;;;;;;;;;;;25.50;70.00;;;;;;5096193;28;19965;-35
2023/09/08 04:31:24;;;;;;;;;;;25.50;70.10;;;;;;5095906;28;19912;-35
2023/09/08 04:33:50;;;;;;;;;;;25.50;70.10;;;;;;5095515;28;19924;-35
2023/09/08 04:36:16;;;;;;;;;;;25.50;70.20;;;;;;5097117;28;19920;-35
2023/09/08 04:38:42;;;;;;;;;;;25.50;70.20;;;;;;5095381;28;19961;-34
2023/09/08 04:41:08;;;;;;;;;;;25.50;70.30;;;;;;5097470;28;19963;-35
2023/09/08 04:43:34;;;;;;;;;;;25.50;70.30;;;;;;5096703;28;19912;-36
2023/09/08 04:46:02;;;;;;;;;;;25.50;70.30;;;;;;5095439;28;20354;-35
2023/09/08 04:48:28;;;;;;;;;;;25.50;70.40;;;;;;5097161;28;22648;-35
2023/09/08 04:50:54;;;;;;;;;;;25.50;70.50;;;;;;5097645;28;19915;-35
2023/09/08 04:53:20;;;;;;;;;;;25.40;70.60;;;;;;5096071;28;19950;-35
2023/09/08 04:55:46;;;;;;;;;;;25.40;70.60;;;;;;5101295;28;19932;-35
2023/09/08 04:58:12;;;;;;;;;;;25.40;70.60;;;;;;5096423;28;19916;-34
2023/09/08 05:00:38;;;;;;;;;;;25.40;70.60;;;;;;5101258;28;19916;-35
2023/09/08 05:03:04;;;;;;;;;;;25.40;70.60;;;;;;5104075;28;20345;-34
2023/09/08 05:05:30;;;;;;;;;;;25.40;70.60;;;;;;5102336;28;19916;-35
2023/09/08 05:07:56;;;;;;;;;;;25.40;70.60;;;;;;5094641;28;19923;-34
2023/09/08 05:10:25;;;;;;;;;;;25.40;70.70;;;;;;5085786;28;19984;-35
2023/09/08 05:12:51;;;;;;;;;;;25.40;70.70;;;;;;5093060;28;19938;-35
2023/09/08 05:15:17;;;;;;;;;;;25.40;70.80;;;;;;5091413;28;20019;-36
2023/09/08 05:17:43;;;;;;;;;;;25.30;70.70;;;;;;5093457;28;19967;-35
2023/09/08 05:20:09;;;;;;;;;;;25.30;70.70;;;;;;5092514;28;19923;-35
2023/09/08 05:22:36;;;;;;;;;;;25.40;70.90;;;;;;5112464;28;19985;-35
2023/09/08 05:25:02;;;;;;;;;;;25.30;70.70;;;;;;5096015;28;20010;-35
2023/09/08 05:27:31;;;;;;;;;;;25.30;70.80;;;;;;5095542;28;19920;-35
2023/09/08 05:29:58;;;;;;;;;;;25.30;70.90;;;;;;5094709;28;19916;-35
2023/09/08 05:32:24;;;;;;;;;;;25.30;70.90;;;;;;5096636;28;19938;-35
2023/09/08 05:34:50;;;;;;;;;;;25.30;70.90;;;;;;5095573;28;19920;-34
2023/09/08 05:37:16;;;;;;;;;;;25.20;70.90;;;;;;5093776;28;19920;-34
2023/09/08 05:39:42;;;;;;;;;;;25.30;71.00;;;;;;5087641;28;19923;-34
2023/09/08 05:42:08;;;;;;;;;;;25.30;71.00;;;;;;5090415;28;19947;-35
2023/09/08 05:44:34;;;;;;;;;;;25.30;71.00;;;;;;5089224;28;19916;-35
2023/09/08 05:46:59;;;;;;;;;;;25.20;71.10;;;;;;5087671;28;20756;-35
2023/09/08 05:49:25;;;;;;;;;;;25.20;70.80;;;;;;5087437;28;19955;-34
2023/09/08 05:51:51;;;;;;;;;;;25.20;70.90;;;;;;5088514;28;19934;-34
2023/09/08 05:54:17;;;;;;;;;;;25.20;71.00;;;;;;5077095;28;20019;-34
2023/09/08 05:56:43;;;;;;;;;;;25.20;71.00;;;;;;5093574;28;19920;-35
2023/09/08 05:59:09;;;;;;;;;;;25.20;71.10;;;;;;5094494;28;19958;-34
2023/09/08 06:01:36;;;;;;;;;;;25.20;71.00;;;;;;5094866;28;19916;-35
2023/09/08 06:04:02;;;;;;;;;;;25.20;71.10;;;;;;5108181;28;19920;-35
2023/09/08 06:06:28;;;;;;;;;;;25.20;71.20;;;;;;5077128;28;20357;-34
2023/09/08 06:08:54;;;;;;;;;;;25.20;71.20;;;;;;5114169;28;19916;-35
2023/09/08 06:11:20;;;;;;;;;;;25.20;71.20;;;;;;5102395;28;19994;-35
2023/09/08 06:13:46;;;;;;;;;;;25.10;71.10;;;;;;5112044;28;19998;-35
2023/09/08 06:16:12;;;;;;;;;;;25.10;71.10;;;;;;5090177;28;19924;-35
2023/09/08 06:18:40;;;;;;;;;;;25.10;71.20;;;;;;5098926;28;20335;-35
2023/09/08 06:21:06;;;;;;;;;;;25.10;71.30;;;;;;5116912;28;19916;-35
2023/09/08 06:23:33;;;;;;;;;;;25.10;71.30;;;;;;5094824;28;19939;-36
2023/09/08 06:26:02;;;;;;;;;;;25.10;71.40;;;;;;5090565;28;19958;-42
2023/09/08 06:28:28;;;;;;;;;;;25.10;71.40;;;;;;5077377;28;19916;-34
2023/09/08 06:30:54;;;;;;;;;;;25.10;71.40;;;;;;5094888;28;19923;-35
2023/09/08 06:33:20;;;;;;;;;;;25.00;71.30;;;;;;5095031;28;19926;-35
2023/09/08 06:35:47;;;;;;;;;;;25.00;71.40;;;;;;5097478;28;19954;-34
2023/09/08 06:38:12;;;;;;;;;;;25.00;71.20;;;;;;5094778;28;19916;-34
2023/09/08 06:40:39;;;;;;;;;;;25.00;71.30;;;;;;5098491;28;19923;-35
2023/09/08 06:43:04;;;;;;;;;;;25.00;71.30;;;;;;5090677;28;19915;-34
2023/09/08 06:45:30;;;;;;;;;;;25.00;71.40;;;;;;5091524;28;19913;-34
2023/09/08 06:47:56;;;;;;;;;;;25.00;71.40;;;;;;5101583;28;20035;-35
2023/09/08 06:50:22;;;;;;;;;;;25.00;71.50;;;;;;5099165;28;20075;-35
2023/09/08 06:52:51;;;;;;;;;;;25.00;71.40;;;;;;5094145;28;19915;-35
2023/09/08 06:55:17;;;;;;;;;;;25.00;71.40;;;;;;5100710;28;19923;-35
2023/09/08 06:57:44;;;;;;;;;;;25.00;71.40;;;;;;5094390;28;19921;-35
2023/09/08 07:00:11;;;;;;;;;;;25.00;71.50;;;;;;5093431;28;19916;-34
2023/09/08 07:02:37;;;;;;;;;;;25.00;71.50;;;;;;5097373;28;19915;-35
2023/09/08 07:05:07;;;;;;;;;;;24.90;71.60;;;;;;5101524;28;19923;-35
2023/09/08 07:07:36;;;;;;;;;;;24.90;71.70;;;;;;5086724;28;19927;-35
2023/09/08 07:10:03;;;;;;;;;;;24.90;71.60;;;;;;5094432;28;19920;-34
2023/09/08 07:12:29;;;;;;;;;;;24.90;71.70;;;;;;5093894;28;20285;-34
2023/09/08 07:14:55;;;;;;;;;;;24.90;71.80;;;;;;5091496;28;19920;-34
2023/09/08 07:17:22;;;;;;;;;;;24.90;71.80;;;;;;5099223;28;19924;-34
2023/09/08 07:19:51;;;;;;;;;;;24.80;71.60;;;;;;5092713;28;20517;-35
2023/09/08 07:22:17;;;;;;;;;;;24.90;71.70;;;;;;5090668;28;20007;-34
2023/09/08 07:24:44;;;;;;;;;;;24.90;71.60;;;;;;5090935;28;19912;-34
2023/09/08 07:27:10;;;;;;;;;;;24.80;71.70;;;;;;5110795;28;19916;-34
2023/09/08 07:29:36;;;;;;;;;;;24.80;71.80;;;;;;5096739;28;19998;-34
2023/09/08 07:32:02;;;;;;;;;;;24.80;71.60;;;;;;5101135;28;20440;-35
2023/09/08 07:34:31;;;;;;;;;;;24.80;71.60;;;;;;5092721;28;20052;-34
2023/09/08 07:36:57;;;;;;;;;;;24.80;71.70;;;;;;5093963;28;19963;-34
2023/09/08 07:39:22;;;;;;;;;;;24.80;71.80;;;;;;5094597;28;19923;-35
2023/09/08 07:41:49;;;;;;;;;;;24.80;71.80;;;;;;5093088;28;19941;-34
2023/09/08 07:44:14;;;;;;;;;;;24.80;71.80;;;;;;5093764;28;19916;-35
2023/09/08 07:46:40;;;;;;;;;;;24.80;71.90;;;;;;5100744;28;19919;-35
2023/09/08 07:49:06;;;;;;;;;;;24.80;71.90;;;;;;5095612;28;19916;-34
2023/09/08 07:51:32;;;;;;;;;;;24.80;71.90;;;;;;5098202;28;19967;-35
2023/09/08 07:53:58;;;;;;;;;;;24.70;71.90;;;;;;5086886;28;19957;-35
2023/09/08 07:56:24;;;;;;;;;;;24.80;72.00;;;;;;5100905;28;19930;-35
2023/09/08 07:58:50;;;;;;;;;;;24.70;72.00;;;;;;5087475;28;19955;-34
2023/09/08 08:01:16;;;;;;;;;;;24.70;71.90;;;;;;5088871;28;19912;-34
2023/09/08 08:03:42;;;;;;;;;;;24.70;71.90;;;;;;5097667;28;19950;-40
2023/09/08 08:06:08;;;;;;;;;;;24.70;71.90;;;;;;5094431;28;19952;-35
2023/09/08 08:08:38;;;;;;;;;;;24.70;71.90;;;;;;5094725;28;19912;-35
2023/09/08 08:11:13;;;;;;;;;;;24.70;71.90;;;;;;5098333;28;20004;-36
2023/09/08 08:13:39;;;;;;;;;;;24.60;71.90;;;;;;5097512;28;19916;-34
2023/09/08 08:16:05;;;;;;;;;;;24.70;72.00;;;;;;5088060;28;19920;-34
2023/09/08 08:18:30;;;;;;;;;;;24.60;71.90;;;;;;5100500;28;19919;-34
2023/09/08 08:20:56;;;;;;;;;;;24.60;71.90;;;;;;5096568;28;19917;-35
2023/09/08 08:23:22;;;;;;;;;;;24.60;72.00;;;;;;5096936;28;19938;-34
2023/09/08 08:25:49;;;;;;;;;;;24.60;72.00;;;;;;5096675;28;20081;-35
2023/09/08 08:28:15;;;;;;;;;;;24.60;72.10;;;;;;5077704;28;19985;-34
2023/09/08 08:30:40;;;;;;;;;;;24.60;72.10;;;;;;5095134;28;19912;-35
2023/09/08 08:33:06;;;;;;;;;;;24.60;72.20;;;;;;5096684;28;19933;-35
2023/09/08 08:35:32;;;;;;;;;;;24.60;72.30;;;;;;5096825;28;19931;-35
2023/09/08 08:37:59;;;;;;;;;;;24.60;72.30;;;;;;5094762;28;19924;-34
2023/09/08 08:40:26;;;;;;;;;;;24.60;72.30;;;;;;5095910;28;19913;-35
2023/09/08 08:42:56;;;;;;;;;;;24.50;72.20;;;;;;5093258;28;20014;-35
2023/09/08 08:45:22;;;;;;;;;;;24.50;72.30;;;;;;5096638;28;19979;-34
2023/09/08 08:47:48;;;;;;;;;;;24.50;72.20;;;;;;5095782;28;19921;-35
2023/09/08 08:50:14;;;;;;;;;;;24.50;72.30;;;;;;5072580;28;20581;-34
2023/09/08 08:52:40;;;;;;;;;;;24.50;72.20;;;;;;5068629;28;19917;-35
2023/09/08 08:55:06;;;;;;;;;;;24.50;72.30;;;;;;5110281;28;20411;-35
2023/09/08 08:57:32;;;;;;;;;;;24.50;72.90;;;;;;5089709;28;19924;-34
2023/09/08 09:00:00;;;;;;;;;;;24.50;72.30;;;;;;5108849;28;19919;-34
2023/09/08 09:02:26;;;;;;;;;;;24.50;72.40;;;;;;5086143;28;19922;-35
2023/09/08 09:04:52;;;;;;;;;;;24.50;72.30;;;;;;5078474;28;19920;-34
2023/09/08 09:07:18;;;;;;;;;;;24.40;72.40;;;;;;5099104;28;19948;-35
2023/09/08 09:09:44;;;;;;;;;;;24.50;72.50;;;;;;5102321;28;19975;-34
2023/09/08 09:12:10;;;;;;;;;;;24.40;72.40;;;;;;5091269;28;20391;-35
2023/09/08 09:14:36;;;;;;;;;;;24.40;72.50;;;;;;5090693;28;19916;-34
2023/09/08 09:17:04;;;;;;;;;;;24.40;72.50;;;;;;5096901;28;19924;-35
2023/09/08 09:19:31;;;;;;;;;;;24.40;72.60;;;;;;5098123;28;19920;-35
2023/09/08 09:21:57;;;;;;;;;;;24.40;72.60;;;;;;5096887;28;19983;-34
2023/09/08 09:24:32;;;;;;;;;;;24.40;72.70;;;;;;5094419;28;19919;-34
2023/09/08 09:26:59;;;;;;;;;;;24.40;72.60;;;;;;5095509;28;19932;-35
2023/09/08 09:29:25;;;;;;;;;;;24.30;72.60;;;;;;5095150;28;19916;-34
2023/09/08 09:31:54;;;;;;;;;;;24.30;72.60;;;;;;5094258;28;19916;-34
2023/09/08 09:34:20;;;;;;;;;;;24.30;72.60;;;;;;5088795;28;19928;-35
2023/09/08 09:36:49;;;;;;;;;;;24.30;72.60;;;;;;5081705;28;19932;-35
2023/09/08 09:39:16;;;;;;;;;;;24.30;72.60;;;;;;5082532;28;19924;-34
2023/09/08 09:41:42;;;;;;;;;;;24.30;72.60;;;;;;5080795;28;19916;-34
2023/09/08 09:44:09;;;;;;;;;;;24.30;72.70;;;;;;5086280;28;19916;-34
2023/09/08 09:46:35;;;;;;;;;;;24.30;72.70;;;;;;5098210;28;19917;-34
2023/09/08 09:49:01;;;;;;;;;;;24.30;72.70;;;;;;5081992;28;19940;-34
2023/09/08 09:51:27;;;;;;;;;;;24.30;72.60;;;;;;5097501;28;19917;-35
2023/09/08 09:53:54;;;;;;;;;;;24.30;72.80;;;;;;5079963;28;19921;-34
2023/09/08 09:56:20;;;;;;;;;;;24.30;72.70;;;;;;5085831;28;20361;-34
2023/09/08 09:58:46;;;;;;;;;;;24.20;72.60;;;;;;5071875;28;19978;-34
2023/09/08 10:01:11;;;;;;;;;;;24.20;72.70;;;;;;5070554;28;20006;-34
2023/09/08 10:03:40;;;;;;;;;;;24.20;72.80;;;;;;5065655;28;19923;-35
2023/09/08 10:06:06;;;;;;;;;;;24.20;72.70;;;;;;5065424;28;19924;-35
2023/09/08 10:08:38;;;;;;;;;;;24.20;72.80;;;;;;5075283;28;19917;-34
2023/09/08 10:11:06;;;;;;;;;;;24.20;72.80;;;;;;5065079;28;19924;-35
2023/09/08 10:13:33;;;;;;;;;;;24.20;72.90;;;;;;5071231;28;20519;-34
2023/09/08 10:15:59;;;;;;;;;;;24.10;72.80;;;;;;5068430;28;19927;-34
2023/09/08 10:18:25;;;;;;;;;;;24.10;72.80;;;;;;5056239;28;19919;-35
2023/09/08 10:20:51;;;;;;;;;;;24.10;72.70;;;;;;5084963;28;19980;-34
2023/09/08 10:23:23;;;;;;;;;;;24.10;72.80;;;;;;5077437;28;19947;-35
2023/09/08 10:25:53;;;;;;;;;;;24.10;72.80;;;;;;5079879;28;20061;-34
2023/09/08 10:28:19;;;;;;;;;;;24.10;72.80;;;;;;5065490;28;19920;-35
2023/09/08 10:30:45;;;;;;;;;;;24.10;72.80;;;;;;5084456;28;20017;-35
2023/09/08 10:33:11;;;;;;;;;;;24.10;72.80;;;;;;5066111;28;19916;-34
2023/09/08 10:35:37;;;;;;;;;;;24.10;72.90;;;;;;5093226;28;19982;-34
2023/09/08 10:38:22;;;;;;;;;;;24.00;72.80;;;;;;5094430;28;19923;-34
2023/09/08 10:40:48;;;;;;;;;;;24.10;73.00;;;;;;5094434;28;19916;-34
2023/09/08 10:43:14;;;;;;;;;;;24.00;72.90;;;;;;5077217;28;19912;-35
2023/09/08 10:45:41;;;;;;;;;;;24.00;73.00;;;;;;5093722;28;19947;-34
2023/09/08 10:48:07;;;;;;;;;;;24.00;73.00;;;;;;5094806;28;19923;-34
2023/09/08 10:50:36;;;;;;;;;;;24.00;73.00;;;;;;5093924;28;19983;-35
2023/09/08 10:53:13;;;;;;;;;;;24.00;73.00;;;;;;5079421;28;19917;-34
2023/09/08 10:55:47;;;;;;;;;;;24.00;73.00;;;;;;5092399;28;19916;-34
2023/09/08 10:58:33;;;;;;;;;;;24.00;73.00;;;;;;5095584;28;20315;-35
2023/09/08 11:01:01;;;;;;;;;;;24.00;72.90;;;;;;5084301;28;19999;-35
2023/09/08 11:03:27;;;;;;;;;;;24.00;73.00;;;;;;5072418;28;19922;-34
2023/09/08 11:05:54;;;;;;;;;;;24.00;73.00;;;;;;5098861;28;19994;-35
2023/09/08 11:08:20;;;;;;;;;;;24.00;73.10;;;;;;5095630;28;19922;-35
2023/09/08 11:10:45;;;;;;;;;;;23.90;73.00;;;;;;5083326;28;19951;-34
2023/09/08 11:13:11;;;;;;;;;;;23.90;73.00;;;;;;5096172;28;19923;-35
2023/09/08 11:15:37;;;;;;;;;;;23.90;73.00;;;;;;5100326;28;19916;-34
2023/09/08 11:18:35;;;;;;;;;;;23.90;73.00;;;;;;5035693;28;19920;-34
2023/09/08 11:21:02;;;;;;;;;;;23.90;73.10;;;;;;5031979;28;19924;-34
2023/09/08 11:23:31;;;;;;;;;;;23.90;73.10;;;;;;5032887;28;20506;-34
2023/09/08 11:25:57;;;;;;;;;;;23.90;73.20;;;;;;5032557;28;20482;-34
2023/09/08 11:28:23;;;;;;;;;;;23.80;73.10;;;;;;5032467;28;19917;-34
2023/09/08 11:30:49;;;;;;;;;;;23.80;73.20;;;;;;5031960;28;19960;-35
2023/09/08 11:33:19;;;;;;;;;;;23.80;73.10;;;;;;5032702;28;19952;-43
2023/09/08 11:35:47;;;;;;;;;;;23.80;73.90;;;;;;5031627;28;19921;-35
2023/09/08 11:38:13;;;;;;;;;;;23.80;73.20;;;;;;5031663;28;20016;-35
2023/09/08 11:40:39;;;;;;;;;;;23.80;73.20;;;;;;5030686;28;19979;-35
2023/09/08 11:43:05;;;;;;;;;;;23.80;73.20;;;;;;5036420;28;20468;-35
2023/09/08 11:45:33;;;;;;;;;;;23.80;73.20;;;;;;5035434;28;19959;-35
2023/09/08 11:47:59;;;;;;;;;;;23.80;73.20;;;;;;5035554;28;19922;-35
2023/09/08 11:50:25;;;;;;;;;;;23.80;73.20;;;;;;5042854;28;19948;-36
2023/09/08 11:52:51;;;;;;;;;;;23.80;73.30;;;;;;5043003;28;19943;-35
2023/09/08 11:55:18;;;;;;;;;;;23.70;73.20;;;;;;5050611;28;19951;-35
2023/09/08 11:57:44;;;;;;;;;;;23.70;73.20;;;;;;5095709;28;19920;-36
2023/09/08 12:00:14;;;;;;;;;;;23.70;73.30;;;;;;5101832;28;19912;-36
2023/09/08 12:02:40;;;;;;;;;;;23.70;73.20;;;;;;5101735;28;19928;-36
2023/09/08 12:05:10;;;;;;;;;;;23.70;73.30;;;;;;5087547;28;20565;-36
2023/09/08 12:07:37;;;;;;;;;;;23.70;73.30;;;;;;5090245;28;19916;-36
2023/09/08 12:10:08;;;;;;;;;;;23.70;73.40;;;;;;5096708;28;19923;-36
2023/09/08 12:12:41;;;;;;;;;;;23.70;73.40;;;;;;5090493;28;19913;-35
2023/09/08 12:15:06;;;;;;;;;;;23.70;73.40;;;;;;5105368;28;19935;-39
2023/09/08 12:17:32;;;;;;;;;;;23.70;73.40;;;;;;5113071;28;19924;-35
2023/09/08 12:19:58;;;;;;;;;;;23.70;73.40;;;;;;5091215;28;19916;-35
2023/09/08 12:22:24;;;;;;;;;;;23.60;73.30;;;;;;5098716;28;19917;-35
2023/09/08 12:24:56;;;;;;;;;;;23.60;73.40;;;;;;5097294;28;19920;-35
2023/09/08 12:27:22;;;;;;;;;;;23.60;74.10;;;;;;5096951;28;19916;-36
2023/09/08 12:29:52;;;;;;;;;;;23.60;73.40;;;;;;5098365;28;19916;-35
2023/09/08 12:32:18;;;;;;;;;;;23.60;73.50;;;;;;5093772;28;19920;-36
2023/09/08 12:34:44;;;;;;;;;;;23.60;73.50;;;;;;5093831;28;20582;-35
2023/09/08 12:37:11;;;;;;;;;;;23.60;73.50;;;;;;5086586;28;19924;-35
2023/09/08 12:39:38;;;;;;;;;;;23.60;73.60;;;;;;5093798;28;20265;-35
2023/09/08 12:42:04;;;;;;;;;;;23.60;73.50;;;;;;5098946;28;19934;-36
2023/09/08 12:44:30;;;;;;;;;;;23.60;73.60;;;;;;5095613;28;19991;-36
2023/09/08 12:46:56;;;;;;;;;;;23.60;73.70;;;;;;5094343;28;19956;-40
2023/09/08 12:49:22;;;;;;;;;;;23.60;73.70;;;;;;5100590;28;19916;-35
2023/09/08 12:51:48;;;;;;;;;;;23.60;73.70;;;;;;5093990;28;19916;-36
2023/09/08 12:54:13;;;;;;;;;;;23.60;73.70;;;;;;5085151;28;19955;-35
2023/09/08 12:56:39;;;;;;;;;;;23.50;73.70;;;;;;5090445;28;19975;-35
2023/09/08 12:59:05;;;;;;;;;;;23.50;73.70;;;;;;5090540;28;19983;-36
2023/09/08 13:01:31;;;;;;;;;;;23.50;73.70;;;;;;5096687;28;20392;-35
2023/09/08 13:03:57;;;;;;;;;;;23.50;73.70;;;;;;5104111;28;19934;-36
2023/09/08 13:06:23;;;;;;;;;;;23.50;73.70;;;;;;5100404;28;19919;-36
2023/09/08 13:08:49;;;;;;;;;;;23.50;73.80;;;;;;5088625;28;19934;-35
2023/09/08 13:11:14;;;;;;;;;;;23.50;73.70;;;;;;5104014;28;19938;-36
2023/09/08 13:13:40;;;;;;;;;;;23.50;73.80;;;;;;5104394;28;20258;-35
2023/09/08 13:16:06;;;;;;;;;;;23.50;73.80;;;;;;5103863;28;19957;-34
2023/09/08 13:18:37;;;;;;;;;;;23.50;73.80;;;;;;5088261;28;19923;-35
2023/09/08 13:21:03;;;;;;;;;;;23.50;73.90;;;;;;5085329;28;19962;-34
2023/09/08 13:23:28;;;;;;;;;;;23.50;73.80;;;;;;5067807;28;19913;-34
2023/09/08 13:25:54;;;;;;;;;;;23.50;73.90;;;;;;5096263;28;20372;-35
2023/09/08 13:28:20;;;;;;;;;;;23.50;73.80;;;;;;5104424;28;19920;-34
2023/09/08 13:30:46;;;;;;;;;;;23.50;73.80;;;;;;5101658;28;19927;-34
2023/09/08 13:33:12;;;;;;;;;;;23.50;73.80;;;;;;5099629;28;19947;-34
2023/09/08 13:35:39;;;;;;;;;;;23.50;73.90;;;;;;5096557;28;19913;-35
2023/09/08 13:38:04;;;;;;;;;;;23.50;73.90;;;;;;5089951;28;19916;-35
2023/09/08 13:40:30;;;;;;;;;;;23.50;74.00;;;;;;5091385;28;19916;-34
2023/09/08 13:42:56;;;;;;;;;;;23.50;73.90;;;;;;5088262;28;19920;-35
2023/09/08 13:45:22;;;;;;;;;;;23.50;74.00;;;;;;5095742;28;19917;-35
2023/09/08 13:47:48;;;;;;;;;;;23.50;74.10;;;;;;5091220;28;19923;-34
2023/09/08 13:50:14;;;;;;;;;;;23.50;74.20;;;;;;5090995;28;19940;-35
2023/09/08 13:52:40;;;;;;;;;;;23.50;74.10;;;;;;5087007;28;19939;-34
2023/09/08 13:55:06;;;;;;;;;;;23.50;74.20;;;;;;5092545;28;19916;-34
2023/09/08 13:57:32;;;;;;;;;;;23.50;74.20;;;;;;5091842;28;19940;-35
2023/09/08 13:59:57;;;;;;;;;;;23.50;74.20;;;;;;5098517;28;20429;-35
2023/09/08 14:02:23;;;;;;;;;;;23.50;74.20;;;;;;5100537;28;19916;-34
2023/09/08 14:04:49;;;;;;;;;;;23.50;74.20;;;;;;5098398;28;19916;-35
2023/09/08 14:07:15;;;;;;;;;;;23.50;74.20;;;;;;5093045;28;19916;-35
2023/09/08 14:09:41;;;;;;;;;;;23.50;74.30;;;;;;5093668;28;19963;-35
2023/09/08 14:12:07;;;;;;;;;;;23.50;74.40;;;;;;5101847;28;19915;-35